createdAt,value
2019-04-21T00:01:01.608Z,27.20
2019-04-21T00:03:07.432Z,22.30
2019-04-21T00:05:24.596Z,21.65
2019-04-21T00:07:33.206Z,22.70
2019-04-21T00:09:41.085Z,23.47
2019-04-21T00:11:41.309Z,24.72
2019-04-21T00:13:42.580Z,26.75
2019-04-21T00:15:42.304Z,22.52
2019-04-21T00:17:39.095Z,27.02
2019-04-21T00:19:47.684Z,24.67
2019-04-21T00:22:01.567Z,23.95
2019-04-21T00:24:21.528Z,23.52
2019-04-21T00:26:35.182Z,27.05
2019-04-21T00:28:42.826Z,26.45
2019-04-21T00:30:44.426Z,29.60
2019-04-21T00:32:41.576Z,25.57
2019-04-21T00:34:36.233Z,24.60
2019-04-21T00:36:51.550Z,26.12
2019-04-21T00:39:14.551Z,25.40
2019-04-21T00:41:13.687Z,28.40
2019-04-21T00:43:15.085Z,25.68
2019-04-21T00:45:16.216Z,30.27
2019-04-21T00:47:33.014Z,26.52
2019-04-21T00:49:27.032Z,27.52
2019-04-21T00:51:46.817Z,29.57
2019-04-21T00:53:58.326Z,33.05
2019-04-21T00:56:01.525Z,31.07
2019-04-21T00:58:03.721Z,30.68
2019-04-21T01:00:07.333Z,36.33
2019-04-21T01:02:09.415Z,33.60
2019-04-21T01:04:15.591Z,35.85
2019-04-21T01:06:23.052Z,30.75
2019-04-21T01:08:25.216Z,35.73
2019-04-21T01:10:27.330Z,31.90
2019-04-21T01:12:43.401Z,34.88
2019-04-21T01:14:53.798Z,37.58
2019-04-21T01:16:56.047Z,37.70
2019-04-21T01:18:54.850Z,34.58
2019-04-21T01:20:40.067Z,32.60
2019-04-21T01:22:43.638Z,30.57
2019-04-21T01:29:11.908Z,31.60
2019-04-21T01:31:21.374Z,39.40
2019-04-21T01:33:36.285Z,34.03
2019-04-21T01:35:38.194Z,33.08
2019-04-21T01:37:44.139Z,36.33
2019-04-21T01:39:49.622Z,35.83
2019-04-21T01:41:55.449Z,33.83
2019-04-21T01:43:49.169Z,36.83
2019-04-21T01:46:04.495Z,31.52
2019-04-21T01:48:01.283Z,33.50
2019-04-21T01:49:59.491Z,32.45
2019-04-21T01:52:31.376Z,33.18
2019-04-21T01:54:41.734Z,31.12
2019-04-21T01:56:51.244Z,35.17
2019-04-21T01:58:49.358Z,31.62
2019-04-21T02:01:08.753Z,28.92
2019-04-21T02:03:36.237Z,30.90
2019-04-21T02:05:34.609Z,32.35
2019-04-21T02:07:32.916Z,34.25
2019-04-21T02:09:38.102Z,30.32
2019-04-21T02:11:51.554Z,31.50
2019-04-21T02:13:58.882Z,32.33
2019-04-21T02:15:59.365Z,29.52
2019-04-21T02:17:59.079Z,29.02
2019-04-21T02:19:55.110Z,29.00
2019-04-21T02:22:04.486Z,31.52
2019-04-21T02:24:27.327Z,28.50
2019-04-21T02:26:22.653Z,29.92
2019-04-21T02:28:40.456Z,32.25
2019-04-21T02:30:49.269Z,33.85
2019-04-21T02:32:48.081Z,30.40
2019-04-21T02:35:02.340Z,30.15
2019-04-21T02:37:17.622Z,27.60
2019-04-21T02:39:08.276Z,30.70
2019-04-21T02:41:21.443Z,31.75
2019-04-21T02:47:38.949Z,31.87
2019-04-21T02:55:48.094Z,29.00
2019-04-21T02:57:59.359Z,30.95
2019-04-21T03:02:17.199Z,32.03
2019-04-21T03:04:42.664Z,32.80
2019-04-21T03:10:59.306Z,28.42
2019-04-21T03:13:05.678Z,27.20
2019-04-21T03:15:18.270Z,32.70
2019-04-21T03:17:14.249Z,34.75
2019-04-21T03:19:17.499Z,31.45
2019-04-21T03:21:20.475Z,38.48
2019-04-21T03:23:28.048Z,35.98
2019-04-21T03:28:04.954Z,31.42
2019-04-21T03:29:48.329Z,32.55
2019-04-21T03:34:34.908Z,29.77
2019-04-21T03:36:33.239Z,33.83
2019-04-21T03:38:03.899Z,29.98
2019-04-21T03:40:07.613Z,30.50
2019-04-21T03:50:33.678Z,29.32
2019-04-21T03:52:49.668Z,31.33
2019-04-21T03:57:48.999Z,30.57
2019-04-21T03:59:38.496Z,31.23
2019-04-21T04:01:41.265Z,32.48
2019-04-21T04:08:08.725Z,32.35
2019-04-21T04:10:07.777Z,36.05
2019-04-21T04:12:15.219Z,32.67
2019-04-21T04:18:39.201Z,30.32
2019-04-21T04:20:39.825Z,32.83
2019-04-21T04:24:49.336Z,31.23
2019-04-21T04:29:08.738Z,32.75
2019-04-21T04:31:06.512Z,35.52
2019-04-21T04:33:08.037Z,31.97
2019-04-21T04:37:30.262Z,41.00
2019-04-21T04:41:42.124Z,34.33
2019-04-21T04:43:39.544Z,33.53
2019-04-21T04:47:54.685Z,37.48
2019-04-21T04:53:54.464Z,38.15
2019-04-21T04:56:12.478Z,34.60
2019-04-21T04:58:56.287Z,37.83
2019-04-21T05:00:25.725Z,40.48
2019-04-21T05:04:39.684Z,34.83
2019-04-21T05:06:46.240Z,32.85
2019-04-21T05:08:58.892Z,32.50
2019-04-21T05:10:56.825Z,32.78
2019-04-21T05:17:24.874Z,34.80
2019-04-21T05:23:15.724Z,30.27
2019-04-21T05:25:08.554Z,28.47
2019-04-21T05:27:29.598Z,39.00
2019-04-21T05:29:52.188Z,33.38
2019-04-21T05:31:56.769Z,31.35
2019-04-21T05:34:04.756Z,28.12
2019-04-21T05:36:15.770Z,26.20
2019-04-21T05:38:22.330Z,26.90
2019-04-21T05:40:29.691Z,23.75
2019-04-21T05:42:38.266Z,24.05
2019-04-21T05:44:56.310Z,19.80
2019-04-21T05:47:05.961Z,21.68
2019-04-21T05:48:57.480Z,19.77
2019-04-21T05:51:00.174Z,24.98
2019-04-21T05:53:13.547Z,22.70
2019-04-21T05:55:16.712Z,17.55
2019-04-21T05:57:14.655Z,20.55
2019-04-21T05:59:26.506Z,16.05
2019-04-21T06:01:39.478Z,16.50
2019-04-21T06:05:53.375Z,17.55
2019-04-21T06:07:46.157Z,17.50
2019-04-21T06:09:57.191Z,14.47
2019-04-21T06:12:03.785Z,18.73
2019-04-21T06:14:08.304Z,16.55
2019-04-21T06:16:07.368Z,17.48
2019-04-21T06:18:21.856Z,15.68
2019-04-21T06:20:22.668Z,16.25
2019-04-21T06:22:23.506Z,14.95
2019-04-21T06:24:39.210Z,14.95
2019-04-21T06:28:49.093Z,20.48
2019-04-21T06:31:00.485Z,19.32
2019-04-21T06:32:59.428Z,20.10
2019-04-21T06:35:20.726Z,16.77
2019-04-21T06:39:30.507Z,17.52
2019-04-21T06:43:33.270Z,18.73
2019-04-21T06:45:44.358Z,18.10
2019-04-21T06:47:53.953Z,14.78
2019-04-21T06:49:42.838Z,14.23
2019-04-21T06:51:54.802Z,12.18
2019-04-21T06:54:03.876Z,13.25
2019-04-21T06:56:06.073Z,12.80
2019-04-21T06:58:11.917Z,17.50
2019-04-21T07:00:14.966Z,17.10
2019-04-21T07:02:36.074Z,14.30
2019-04-21T07:04:27.975Z,14.58
2019-04-21T07:06:40.267Z,17.82
2019-04-21T07:10:41.662Z,12.78
2019-04-21T07:12:44.957Z,14.63
2019-04-21T07:14:56.278Z,16.82
2019-04-21T07:16:57.875Z,15.60
2019-04-21T07:19:14.524Z,11.78
2019-04-21T07:21:08.281Z,15.65
2019-04-21T07:23:16.240Z,13.35
2019-04-21T07:25:22.596Z,12.63
2019-04-21T07:27:22.200Z,11.05
2019-04-21T07:29:34.888Z,13.32
2019-04-21T07:31:39.773Z,11.12
2019-04-21T07:35:45.761Z,11.20
2019-04-21T07:37:48.106Z,10.13
2019-04-21T07:39:53.137Z,9.60
2019-04-21T07:41:54.303Z,12.58
2019-04-21T07:44:00.286Z,8.15
2019-04-21T07:46:03.618Z,7.12
2019-04-21T07:48:14.336Z,8.55
2019-04-21T07:50:38.246Z,10.63
2019-04-21T07:53:05.209Z,9.48
2019-04-21T07:55:16.119Z,8.90
2019-04-21T07:56:56.057Z,10.30
2019-04-21T07:59:18.861Z,8.38
2019-04-21T08:01:22.596Z,8.03
2019-04-21T08:03:20.454Z,8.55
2019-04-21T08:05:33.969Z,10.53
2019-04-21T08:07:47.673Z,10.82
2019-04-21T08:09:42.677Z,10.68
2019-04-21T08:11:44.359Z,15.90
2019-04-21T08:13:55.052Z,13.68
2019-04-21T08:15:58.013Z,10.23
2019-04-21T08:18:00.706Z,11.25
2019-04-21T08:20:07.426Z,9.70
2019-04-21T08:22:18.566Z,8.38
2019-04-21T08:24:18.205Z,20.85
2019-04-21T08:26:26.896Z,7.28
2019-04-21T08:28:28.969Z,7.95
2019-04-21T08:32:57.620Z,7.17
2019-04-21T08:34:59.511Z,7.83
2019-04-21T08:37:04.012Z,7.58
2019-04-21T08:38:57.029Z,7.70
2019-04-21T08:41:03.562Z,6.80
2019-04-21T08:43:02.916Z,8.48
2019-04-21T08:45:16.246Z,5.65
2019-04-21T08:47:20.528Z,6.08
2019-04-21T08:49:22.177Z,5.12
2019-04-21T08:51:34.073Z,6.70
2019-04-21T08:53:34.274Z,7.33
2019-04-21T08:58:10.965Z,6.58
2019-04-21T09:00:12.544Z,6.25
2019-04-21T09:02:19.812Z,6.50
2019-04-21T09:04:26.138Z,7.78
2019-04-21T09:08:33.308Z,6.78
2019-04-21T09:10:39.664Z,5.95
2019-04-21T09:12:40.420Z,5.37
2019-04-21T09:14:50.693Z,5.58
2019-04-21T09:16:53.391Z,5.90
2019-04-21T09:18:54.081Z,8.85
2019-04-21T09:21:04.566Z,7.12
2019-04-21T09:23:06.385Z,7.95
2019-04-21T09:25:19.582Z,5.17
2019-04-21T09:27:20.279Z,5.30
2019-04-21T09:29:18.010Z,7.55
2019-04-21T09:31:17.976Z,6.55
2019-04-21T09:33:18.478Z,5.90
2019-04-21T09:35:22.707Z,5.62
2019-04-21T09:37:40.039Z,3.98
2019-04-21T09:39:33.720Z,6.03
2019-04-21T09:41:39.515Z,6.10
2019-04-21T09:43:47.382Z,4.92
2019-04-21T09:45:49.640Z,5.53
2019-04-21T09:48:00.860Z,6.58
2019-04-21T09:49:58.588Z,5.30
2019-04-21T09:52:08.908Z,4.37
2019-04-21T09:54:16.014Z,5.25
2019-04-21T09:56:17.981Z,5.80
2019-04-21T09:58:29.277Z,7.55
2019-04-21T10:00:29.340Z,5.70
2019-04-21T10:02:38.513Z,4.95
2019-04-21T10:04:35.851Z,5.72
2019-04-21T10:08:44.353Z,7.70
2019-04-21T10:10:49.074Z,5.67
2019-04-21T10:12:53.898Z,9.20
2019-04-21T10:14:57.528Z,7.95
2019-04-21T10:17:21.712Z,7.55
2019-04-21T10:21:29.429Z,6.80
2019-04-21T10:23:33.858Z,8.18
2019-04-21T10:25:38.630Z,9.45
2019-04-21T10:27:43.194Z,9.13
2019-04-21T10:29:48.557Z,6.55
2019-04-21T10:31:52.477Z,8.90
2019-04-21T10:33:56.161Z,7.40
2019-04-21T10:38:14.962Z,7.35
2019-04-21T10:40:09.625Z,11.03
2019-04-21T10:42:13.442Z,8.35
2019-04-21T10:46:20.719Z,7.95
2019-04-21T10:50:28.772Z,6.58
2019-04-21T10:52:50.982Z,7.22
2019-04-21T10:55:12.776Z,8.00
2019-04-21T10:57:02.103Z,9.15
2019-04-21T10:59:05.904Z,9.83
2019-04-21T11:01:13.878Z,9.85
2019-04-21T11:03:35.263Z,8.35
2019-04-21T11:05:38.967Z,7.33
2019-04-21T11:09:49.624Z,8.78
2019-04-21T11:11:53.625Z,9.55
2019-04-21T11:13:57.247Z,8.90
2019-04-21T11:18:06.108Z,7.85
2019-04-21T11:20:10.831Z,9.68
2019-04-21T11:22:14.861Z,8.28
2019-04-21T11:24:18.431Z,7.03
2019-04-21T11:26:22.118Z,8.23
2019-04-21T11:28:27.092Z,7.28
2019-04-21T11:30:31.715Z,11.68
2019-04-21T11:32:35.409Z,7.72
2019-04-21T11:36:43.808Z,7.62
2019-04-21T11:39:19.330Z,9.00
2019-04-21T11:41:11.917Z,7.53
2019-04-21T11:43:15.764Z,9.65
2019-04-21T11:45:32.735Z,7.25
2019-04-21T11:47:38.513Z,8.38
2019-04-21T11:49:43.156Z,8.90
2019-04-21T11:51:47.021Z,5.00
2019-04-21T11:53:50.888Z,6.80
2019-04-21T11:55:55.573Z,6.92
2019-04-21T11:58:00.291Z,10.03
2019-04-21T12:00:06.191Z,9.10
2019-04-21T12:02:09.836Z,6.62
2019-04-21T12:06:17.589Z,7.20
2019-04-21T12:10:25.719Z,9.63
2019-04-21T12:12:29.621Z,7.15
2019-04-21T12:14:34.201Z,8.10
2019-04-21T12:16:39.101Z,7.08
2019-04-21T12:18:43.009Z,7.37
2019-04-21T12:20:47.343Z,7.28
2019-04-21T12:22:51.034Z,8.63
2019-04-21T12:24:55.508Z,6.60
2019-04-21T12:27:00.039Z,7.42
2019-04-21T12:29:03.949Z,6.67
2019-04-21T12:31:09.690Z,7.45
2019-04-21T12:33:34.162Z,6.65
2019-04-21T12:35:38.021Z,9.60
2019-04-21T12:37:42.786Z,6.50
2019-04-21T12:39:46.546Z,6.42
2019-04-21T12:41:50.777Z,7.00
2019-04-21T12:43:55.008Z,5.60
2019-04-21T12:45:59.784Z,6.92
2019-04-21T12:48:04.260Z,7.90
2019-04-21T12:50:10.794Z,7.70
2019-04-21T12:52:15.637Z,6.87
2019-04-21T12:54:19.645Z,6.37
2019-04-21T12:56:23.440Z,11.10
2019-04-21T12:58:27.156Z,8.30
2019-04-21T13:02:35.801Z,8.53
2019-04-21T13:04:40.038Z,6.08
2019-04-21T13:06:43.749Z,6.25
2019-04-21T13:08:54.522Z,12.05
2019-04-21T13:10:53.972Z,7.33
2019-04-21T13:12:57.721Z,5.05
2019-04-21T13:17:06.037Z,5.65
2019-04-21T13:19:09.602Z,6.17
2019-04-21T13:23:16.786Z,7.80
2019-04-21T13:25:20.530Z,9.15
2019-04-21T13:27:24.803Z,7.12
2019-04-21T13:29:28.625Z,5.35
2019-04-21T13:31:32.212Z,8.00
2019-04-21T13:33:35.844Z,7.40
2019-04-21T13:35:41.209Z,6.35
2019-04-21T13:37:48.468Z,5.70
2019-04-21T13:40:23.722Z,5.20
2019-04-21T13:42:21.337Z,7.05
2019-04-21T13:44:19.119Z,7.45
2019-04-21T13:46:22.858Z,6.58
2019-04-21T13:48:26.561Z,6.22
2019-04-21T13:50:31.168Z,8.30
2019-04-21T13:52:36.363Z,8.50
2019-04-21T13:54:40.242Z,5.05
2019-04-21T13:56:44.924Z,6.85
2019-04-21T13:58:48.610Z,9.78
2019-04-21T14:02:56.543Z,5.60
2019-04-21T14:05:01.172Z,5.00
2019-04-21T14:07:06.065Z,6.62
2019-04-21T14:09:11.609Z,5.92
2019-04-21T14:11:15.578Z,6.05
2019-04-21T14:13:20.426Z,6.35
2019-04-21T14:15:24.507Z,6.28
2019-04-21T14:17:28.795Z,6.72
2019-04-21T14:19:33.199Z,6.90
2019-04-21T14:21:37.136Z,7.35
2019-04-21T14:23:46.009Z,8.13
2019-04-21T14:25:46.373Z,6.72
2019-04-21T14:27:51.908Z,5.20
2019-04-21T14:29:55.610Z,5.05
2019-04-21T14:32:00.095Z,5.12
2019-04-21T14:34:03.940Z,6.33
2019-04-21T14:36:08.625Z,5.58
2019-04-21T14:38:12.310Z,6.25
2019-04-21T14:40:22.501Z,5.55
2019-04-21T14:42:22.180Z,6.22
2019-04-21T14:44:27.090Z,5.45
2019-04-21T14:46:39.547Z,5.72
2019-04-21T14:49:01.329Z,4.37
2019-04-21T14:51:06.757Z,4.70
2019-04-21T14:53:15.865Z,4.92
2019-04-21T14:55:24.896Z,4.30
2019-04-21T14:57:29.492Z,6.40
2019-04-21T14:59:33.404Z,6.62
2019-04-21T15:01:37.808Z,5.10
2019-04-21T15:03:41.744Z,4.08
2019-04-21T15:05:45.430Z,3.90
2019-04-21T15:07:49.040Z,7.90
2019-04-21T15:10:03.528Z,7.00
2019-04-21T15:11:58.193Z,6.08
2019-04-21T15:14:04.092Z,6.10
2019-04-21T15:16:08.903Z,6.15
2019-04-21T15:18:12.709Z,6.62
2019-04-21T15:20:18.206Z,5.90
2019-04-21T15:22:21.762Z,5.08
2019-04-21T15:24:26.637Z,5.33
2019-04-21T15:26:30.510Z,6.00
2019-04-21T15:28:36.980Z,5.42
2019-04-21T15:30:40.784Z,5.33
2019-04-21T15:32:44.456Z,8.00
2019-04-21T15:34:48.119Z,7.00
2019-04-21T15:36:52.391Z,7.92
2019-04-21T15:38:56.175Z,5.12
2019-04-21T15:41:03.844Z,6.05
2019-04-21T15:43:06.304Z,4.53
2019-04-21T15:45:10.567Z,12.58
2019-04-21T15:47:14.159Z,5.50
2019-04-21T15:49:17.759Z,5.28
2019-04-21T15:51:21.990Z,5.10
2019-04-21T15:53:27.703Z,5.65
2019-04-21T15:55:52.510Z,5.15
2019-04-21T15:58:01.018Z,5.62
2019-04-21T16:00:10.994Z,7.90
2019-04-21T16:02:32.836Z,7.20
2019-04-21T16:04:36.831Z,5.25
2019-04-21T16:06:41.599Z,5.12
2019-04-21T16:08:47.556Z,5.08
2019-04-21T16:10:56.088Z,5.30
2019-04-21T16:12:56.053Z,5.83
2019-04-21T16:15:00.703Z,5.85
2019-04-21T16:17:05.368Z,5.58
2019-04-21T16:19:10.069Z,4.92
2019-04-21T16:21:13.925Z,4.03
2019-04-21T16:23:18.623Z,7.05
2019-04-21T16:25:23.189Z,6.22
2019-04-21T16:27:27.648Z,5.90
2019-04-21T16:29:31.541Z,5.10
2019-04-21T16:31:36.226Z,9.63
2019-04-21T16:33:41.062Z,6.25
2019-04-21T16:35:44.657Z,6.12
2019-04-21T16:37:48.218Z,5.50
2019-04-21T16:39:51.876Z,5.67
2019-04-21T16:41:56.323Z,6.30
2019-04-21T16:44:00.935Z,5.80
2019-04-21T16:46:04.768Z,8.78
2019-04-21T16:48:09.473Z,8.48
2019-04-21T16:50:13.933Z,6.10
2019-04-21T16:52:20.373Z,8.88
2019-04-21T16:54:26.226Z,5.70
2019-04-21T16:56:32.967Z,8.48
2019-04-21T16:58:44.961Z,7.15
2019-04-21T17:01:11.982Z,5.90
2019-04-21T17:03:10.795Z,6.83
2019-04-21T17:05:14.608Z,12.68
2019-04-21T17:07:18.276Z,6.53
2019-04-21T17:09:22.955Z,5.62
2019-04-21T17:13:32.141Z,7.05
2019-04-21T17:15:56.692Z,12.43
2019-04-21T17:16:27.369Z,5.97
2019-04-21T17:18:03.380Z,7.35
2019-04-21T17:19:49.054Z,7.47
2019-04-21T17:21:52.170Z,6.53
2019-04-21T17:23:56.626Z,10.43
2019-04-21T17:26:01.129Z,8.15
2019-04-21T17:28:05.963Z,6.25
2019-04-21T17:30:12.590Z,5.97
2019-04-21T17:32:16.753Z,5.15
2019-04-21T17:34:24.976Z,11.30
2019-04-21T17:36:27.175Z,7.53
2019-04-21T17:38:32.081Z,8.05
2019-04-21T17:40:37.860Z,8.00
2019-04-21T17:42:46.392Z,7.67
2019-04-21T17:44:47.677Z,10.15
2019-04-21T17:47:00.707Z,9.03
2019-04-21T17:48:57.011Z,8.80
2019-04-21T17:53:35.693Z,7.95
2019-04-21T17:56:05.380Z,9.95
2019-04-21T17:58:09.410Z,9.05
2019-04-21T18:00:26.135Z,33.60
2019-04-21T18:02:34.011Z,26.17
2019-04-21T18:04:33.488Z,12.47
2019-04-21T18:06:36.675Z,9.58
2019-04-21T18:08:47.860Z,7.42
2019-04-21T18:10:45.659Z,7.72
2019-04-21T18:12:45.897Z,12.95
2019-04-21T18:14:51.862Z,9.58
2019-04-21T18:16:48.215Z,11.05
2019-04-21T18:18:50.789Z,11.65
2019-04-21T18:20:59.137Z,8.58
2019-04-21T18:23:15.130Z,9.65
2019-04-21T18:25:31.916Z,9.88
2019-04-21T18:27:26.702Z,13.45
2019-04-21T18:29:30.045Z,10.28
2019-04-21T18:31:39.784Z,10.88
2019-04-21T18:33:43.700Z,28.17
2019-04-21T18:36:00.676Z,12.98
2019-04-21T18:38:15.786Z,11.63
2019-04-21T18:40:21.672Z,15.18
2019-04-21T18:42:40.818Z,10.32
2019-04-21T18:45:06.480Z,17.60
2019-04-21T18:48:57.223Z,13.88
2019-04-21T18:51:06.150Z,22.32
2019-04-21T18:53:41.188Z,30.20
2019-04-21T18:55:39.196Z,20.62
2019-04-21T18:57:42.383Z,13.68
2019-04-21T18:59:45.135Z,16.85
2019-04-21T19:01:52.684Z,11.25
2019-04-21T19:03:55.694Z,10.68
2019-04-21T19:06:03.878Z,15.80
2019-04-21T19:08:20.737Z,17.77
2019-04-21T19:10:26.798Z,17.12
2019-04-21T19:12:36.621Z,16.05
2019-04-21T19:14:43.218Z,14.18
2019-04-21T19:18:56.533Z,16.45
2019-04-21T19:20:54.032Z,12.93
2019-04-21T19:22:59.059Z,14.05
2019-04-21T19:25:04.808Z,18.30
2019-04-21T19:27:18.861Z,12.07
2019-04-21T19:29:26.711Z,15.58
2019-04-21T19:31:24.905Z,14.33
2019-04-21T19:33:28.535Z,15.45
2019-04-21T19:35:17.314Z,16.15
2019-04-21T19:37:25.915Z,17.95
2019-04-21T19:39:39.983Z,18.48
2019-04-21T19:41:47.247Z,15.15
2019-04-21T19:43:57.571Z,19.95
2019-04-21T19:45:59.668Z,19.95
2019-04-21T19:48:05.355Z,15.98
2019-04-21T19:50:11.773Z,20.17
2019-04-21T19:52:05.496Z,14.75
2019-04-21T19:54:14.397Z,19.87
2019-04-21T19:56:09.983Z,14.60
2019-04-21T19:58:14.805Z,16.07
2019-04-21T20:00:19.326Z,17.62
2019-04-21T20:02:24.574Z,15.18
2019-04-21T20:04:34.109Z,19.05
2019-04-21T20:06:48.967Z,26.12
2019-04-21T20:08:56.421Z,20.40
2019-04-21T20:11:03.897Z,18.90
2019-04-21T20:13:14.736Z,18.57
2019-04-21T20:15:23.248Z,15.75
2019-04-21T20:17:14.947Z,20.15
2019-04-21T20:19:11.765Z,20.45
2019-04-21T20:21:12.639Z,19.17
2019-04-21T20:23:23.453Z,23.57
2019-04-21T20:25:24.944Z,25.10
2019-04-21T20:27:38.548Z,21.12
2019-04-21T20:29:56.171Z,22.42
2019-04-21T20:31:54.960Z,29.65
2019-04-21T20:34:07.758Z,26.23
2019-04-21T20:38:12.348Z,27.10
2019-04-21T20:40:05.169Z,32.60
2019-04-21T20:42:21.614Z,25.60
2019-04-21T20:44:29.645Z,27.40
2019-04-21T20:46:35.097Z,26.17
2019-04-21T20:48:35.708Z,24.70
2019-04-21T20:50:37.925Z,21.93
2019-04-21T20:52:56.847Z,23.75
2019-04-21T20:54:53.942Z,27.42
2019-04-21T20:57:02.693Z,22.15
2019-04-21T20:59:07.289Z,18.48
2019-04-21T21:01:26.737Z,24.95
2019-04-21T21:03:23.182Z,24.82
2019-04-21T21:05:23.073Z,20.48
2019-04-21T21:07:40.207Z,22.52
2019-04-21T21:09:33.807Z,26.50
2019-04-21T21:11:41.085Z,23.25
2019-04-21T21:13:50.696Z,23.98
2019-04-21T21:16:06.157Z,23.75
2019-04-21T21:18:04.403Z,35.25
2019-04-21T21:20:07.807Z,23.12
2019-04-21T21:22:00.163Z,21.93
2019-04-21T21:24:08.752Z,29.60
2019-04-21T21:26:21.868Z,21.85
2019-04-21T21:28:22.710Z,30.08
2019-04-21T21:30:22.743Z,23.62
2019-04-21T21:32:32.013Z,27.35
2019-04-21T21:34:40.606Z,23.92
2019-04-21T21:36:41.830Z,23.47
2019-04-21T21:38:55.983Z,29.00
2019-04-21T21:40:51.421Z,23.70
2019-04-21T21:42:44.278Z,27.22
2019-04-21T21:44:58.628Z,29.07
2019-04-21T21:47:05.367Z,25.02
2019-04-21T21:49:07.316Z,25.20
2019-04-21T21:51:13.070Z,29.37
2019-04-21T21:53:14.511Z,22.07
2019-04-21T21:55:15.915Z,29.57
2019-04-21T21:57:20.656Z,27.35
2019-04-21T21:59:27.802Z,25.02
2019-04-21T22:01:38.056Z,29.82
2019-04-21T22:03:40.890Z,29.30
2019-04-21T22:05:46.592Z,24.85
2019-04-21T22:07:46.610Z,24.72
2019-04-21T22:09:50.543Z,22.85
2019-04-21T22:11:57.893Z,27.67
2019-04-21T22:14:04.365Z,29.10
2019-04-21T22:16:10.395Z,26.27
2019-04-21T22:18:28.525Z,27.22
2019-04-21T22:20:33.426Z,27.17
2019-04-21T22:22:32.784Z,30.72
2019-04-21T22:24:43.893Z,27.70
2019-04-21T22:26:33.184Z,26.25
2019-04-21T22:28:37.766Z,29.48
2019-04-21T22:30:46.444Z,33.20
2019-04-21T22:32:52.763Z,26.75
2019-04-21T22:34:58.292Z,24.32
2019-04-21T22:37:16.085Z,27.87
2019-04-21T22:39:19.481Z,28.87
2019-04-21T22:41:19.259Z,30.00
2019-04-21T22:43:24.262Z,27.77
2019-04-21T22:45:19.629Z,30.68
2019-04-21T22:47:26.978Z,28.98
2019-04-21T22:49:28.692Z,27.22
2019-04-21T22:51:37.641Z,31.07
2019-04-21T22:53:43.662Z,28.05
2019-04-21T22:55:43.084Z,28.07
2019-04-21T22:57:51.360Z,24.50
2019-04-21T22:59:59.928Z,27.32
2019-04-21T23:01:57.720Z,26.87
2019-04-21T23:04:02.936Z,29.07
2019-04-21T23:06:14.552Z,27.15
2019-04-21T23:08:13.014Z,24.02
2019-04-21T23:10:17.267Z,22.37
2019-04-21T23:12:28.065Z,20.30
2019-04-21T23:14:26.148Z,19.73
2019-04-21T23:18:46.080Z,21.95
2019-04-21T23:20:57.777Z,18.40
2019-04-21T23:23:05.060Z,15.18
2019-04-21T23:25:07.520Z,20.20
2019-04-21T23:27:11.777Z,21.27
2019-04-21T23:29:17.416Z,19.23
2019-04-21T23:31:24.534Z,23.05
2019-04-21T23:33:15.744Z,20.00
2019-04-21T23:35:25.800Z,20.65
2019-04-21T23:37:25.547Z,18.70
2019-04-21T23:39:31.039Z,15.95
2019-04-21T23:41:36.049Z,16.82
2019-04-21T23:43:38.932Z,16.87
2019-04-21T23:45:44.757Z,23.15
2019-04-21T23:48:01.905Z,23.83
2019-04-21T23:50:02.750Z,18.85
2019-04-21T23:52:03.114Z,17.92
2019-04-21T23:54:05.088Z,17.15
2019-04-21T23:56:13.433Z,19.25
2019-04-21T23:58:22.247Z,18.30
